Time;durP1;ratioP1;P1;durP2;ratioP2;P2;SDS_P1;SDS_P2;PMS_P1;PMS_P2;Temp;Humidity;BMP_temperature;BMP_pressure;BME280_temperature;BME280_humidity;BME280_pressure;Samples;Min_cycle;Max_cycle;Signal;HPM_P1;HPM_P2
2022/06/09 10:56:04;;;;;;;9.52;3.88;;;19.70;69.60;;;;;;5070958;28;20444;-51
2022/06/09 10:58:39;;;;;;;7.47;3.37;;;19.40;71.40;;;;;;5070229;28;20107;-50
2022/06/09 11:01:05;;;;;;;21.23;3.47;;;19.10;73.60;;;;;;5070523;28;20032;-49
2022/06/09 11:03:44;;;;;;;6.85;3.67;;;18.80;76.00;;;;;;5069158;28;20033;-50
2022/06/09 11:06:31;;;;;;;9.57;4.20;;;18.60;77.20;;;;;;5070739;28;20028;-50
2022/06/09 11:09:06;;;;;;;6.50;2.70;;;18.60;74.70;;;;;;5070335;28;20743;-50
2022/06/09 11:11:55;;;;;;;8.32;3.60;;;18.50;74.20;;;;;;5070477;28;20028;-49
2022/06/09 11:14:47;;;;;;;10.63;3.53;;;18.30;74.70;;;;;;5070595;28;20384;-50
2022/06/09 11:17:36;;;;;;;7.30;3.45;;;18.60;74.30;;;;;;5070566;28;20033;-50
2022/06/09 11:20:15;;;;;;;8.43;3.88;;;18.90;73.20;;;;;;5070184;28;20096;-50
2022/06/09 11:23:13;;;;;;;8.55;5.03;;;18.80;73.70;;;;;;5070449;28;20024;-51
2022/06/09 11:26:02;;;;;;;9.60;4.45;;;18.70;73.40;;;;;;5057704;28;20033;-52
2022/06/09 11:28:49;;;;;;;11.82;4.80;;;18.80;74.80;;;;;;5070002;28;20048;-50
2022/06/09 11:31:24;;;;;;;5.68;4.03;;;19.50;72.80;;;;;;5069838;28;20031;-49
2022/06/09 11:34:14;;;;;;;6.40;4.03;;;19.80;70.90;;;;;;5070796;28;20038;-50
2022/06/09 11:36:59;;;;;;;8.07;4.22;;;20.30;69.90;;;;;;5069720;28;20026;-49
2022/06/09 11:39:43;;;;;;;4.18;2.92;;;20.50;67.50;;;;;;5067880;28;20025;-49
2022/06/09 11:42:41;;;;;;;7.88;3.33;;;20.80;67.90;;;;;;5070862;28;20024;-50
2022/06/09 11:45:31;;;;;;;4.68;2.95;;;20.40;68.50;;;;;;5069648;28;20120;-51
2022/06/09 11:48:01;;;;;;;6.82;3.50;;;20.30;70.20;;;;;;5067901;28;20056;-52
2022/06/09 11:50:40;;;;;;;12.90;5.13;;;20.30;69.30;;;;;;5069193;28;20084;-48
2022/06/09 11:53:06;;;;;;;7.40;3.90;;;20.50;68.60;;;;;;5068803;28;20169;-49
2022/06/09 20:14:32;;;;;;;10.95;3.47;;;17.00;76.60;;;;;;5111912;27;20380;-50
2022/06/09 20:16:58;;;;;;;5.15;3.58;;;16.90;76.90;;;;;;5111281;28;20030;-50
2022/06/09 20:19:23;;;;;;;6.13;4.03;;;17.00;76.90;;;;;;5111513;28;20024;-49
2022/06/09 20:21:50;;;;;;;9.38;3.55;;;17.10;76.50;;;;;;5111246;28;20058;-48
2022/06/09 20:24:16;;;;;;;7.60;3.63;;;17.20;76.50;;;;;;5111398;28;20053;-52
2022/06/09 20:26:41;;;;;;;8.85;3.45;;;17.20;76.30;;;;;;5111767;28;20023;-49
2022/06/09 20:29:07;;;;;;;12.18;4.28;;;17.20;76.20;;;;;;5111130;28;20029;-50
2022/06/09 20:31:33;;;;;;;4.68;2.47;;;17.20;75.90;;;;;;5111978;28;20047;-50
2022/06/09 20:34:01;;;;;;;10.57;3.72;;;17.10;75.70;;;;;;5111166;28;20024;-52
2022/06/09 20:36:28;;;;;;;8.25;3.25;;;17.00;76.20;;;;;;5110999;28;20031;-50
2022/06/09 20:38:53;;;;;;;8.35;3.92;;;17.00;76.40;;;;;;5110571;28;20059;-51
2022/06/09 20:41:21;;;;;;;8.93;4.25;;;16.80;76.60;;;;;;5110679;28;20028;-49
2022/06/09 20:43:47;;;;;;;8.05;3.85;;;16.80;76.90;;;;;;5110785;28;20024;-49
2022/06/09 20:46:19;;;;;;;10.32;3.65;;;16.70;77.30;;;;;;5110297;28;20026;-48
2022/06/09 20:48:59;;;;;;;12.60;3.80;;;16.60;77.70;;;;;;5110491;28;20020;-49
2022/06/09 20:51:26;;;;;;;8.07;4.10;;;16.50;77.60;;;;;;5110155;28;20092;-51
2022/06/09 20:53:59;;;;;;;9.90;4.40;;;16.30;78.10;;;;;;5109636;28;20051;-50
2022/06/09 20:56:25;;;;;;;6.65;3.40;;;16.30;78.60;;;;;;5110695;28;20020;-50
2022/06/09 20:58:52;;;;;;;11.90;3.63;;;16.30;78.90;;;;;;5110173;28;20453;-49
2022/06/09 21:01:18;;;;;;;7.28;3.80;;;16.30;79.10;;;;;;5110440;28;20020;-50
2022/06/09 21:03:44;;;;;;;7.85;4.32;;;16.30;79.00;;;;;;5108777;28;20055;-48
2022/06/09 21:06:10;;;;;;;7.82;4.07;;;16.20;79.20;;;;;;5110164;28;20026;-50
2022/06/09 21:08:37;;;;;;;7.60;4.72;;;16.20;79.60;;;;;;5109956;28;20031;-50
2022/06/09 21:19:18;;;;;;;6.90;3.63;;;15.90;81.00;;;;;;5110056;28;20070;-50
2022/06/09 21:21:44;;;;;;;6.85;3.15;;;15.80;81.30;;;;;;5108579;28;20454;-50
2022/06/09 21:24:10;;;;;;;7.22;4.10;;;15.70;81.50;;;;;;5104529;28;20024;-48
2022/06/09 21:26:36;;;;;;;10.80;3.75;;;15.60;81.80;;;;;;5095798;28;20031;-50
2022/06/09 21:29:03;;;;;;;9.75;4.97;;;15.50;82.00;;;;;;5094691;28;20058;-48
2022/06/09 21:31:29;;;;;;;8.38;4.00;;;15.50;82.70;;;;;;5095850;28;20028;-49
2022/06/09 21:33:56;;;;;;;11.02;4.57;;;15.40;82.90;;;;;;5095932;28;20086;-48
2022/06/09 21:36:23;;;;;;;10.68;4.40;;;15.40;83.20;;;;;;5095979;28;20384;-48
2022/06/09 21:38:48;;;;;;;10.95;4.10;;;15.40;83.40;;;;;;5095670;28;20031;-48
2022/06/09 21:41:14;;;;;;;12.02;4.75;;;15.40;83.00;;;;;;5096056;28;20380;-53
2022/06/09 21:43:41;;;;;;;6.63;3.45;;;15.50;82.60;;;;;;5095839;28;20424;-50
2022/06/09 21:46:07;;;;;;;11.52;4.03;;;15.40;82.70;;;;;;5095934;28;20027;-49
2022/06/09 21:48:33;;;;;;;12.05;5.70;;;15.40;82.80;;;;;;5095921;28;20503;-50
2022/06/09 21:50:58;;;;;;;8.63;4.13;;;15.50;82.70;;;;;;5095808;28;20036;-49
2022/06/09 21:53:24;;;;;;;7.80;4.38;;;15.40;82.60;;;;;;5095680;28;20032;-51
2022/06/09 21:55:50;;;;;;;7.90;4.72;;;15.30;82.90;;;;;;5094620;28;20028;-52
2022/06/09 21:58:16;;;;;;;10.00;6.55;;;15.20;83.50;;;;;;5096138;28;20028;-49
2022/06/09 22:00:46;;;;;;;7.40;4.70;;;15.20;84.10;;;;;;5094228;28;20080;-51
2022/06/09 22:03:12;;;;;;;10.70;4.35;;;15.10;84.50;;;;;;5095863;28;20035;-52
2022/06/09 22:05:38;;;;;;;9.38;4.75;;;15.00;84.80;;;;;;5095414;28;20038;-48
2022/06/09 22:08:04;;;;;;;5.32;4.10;;;14.90;85.20;;;;;;5095613;28;20024;-49
2022/06/09 22:10:32;;;;;;;11.80;4.72;;;14.80;85.60;;;;;;5095553;28;20386;-49
2022/06/09 22:12:58;;;;;;;10.07;4.25;;;14.80;86.00;;;;;;5095273;28;20040;-52
2022/06/09 22:15:25;;;;;;;6.75;4.00;;;14.70;86.50;;;;;;5096521;28;20028;-49
2022/06/09 22:17:51;;;;;;;9.52;4.90;;;14.70;86.90;;;;;;5094161;28;20540;-50
2022/06/09 22:20:21;;;;;;;7.90;4.03;;;14.60;87.10;;;;;;5095732;28;20444;-51
2022/06/09 22:22:47;;;;;;;10.48;4.78;;;14.50;87.40;;;;;;5095745;28;20426;-49
2022/06/09 22:25:13;;;;;;;10.45;4.82;;;14.50;87.50;;;;;;5095251;28;20063;-48
2022/06/09 22:27:40;;;;;;;9.35;4.90;;;14.50;87.70;;;;;;5093824;28;20476;-50
2022/06/09 22:30:07;;;;;;;7.97;4.45;;;14.40;87.90;;;;;;5095213;28;20391;-49
2022/06/09 22:32:33;;;;;;;11.55;5.88;;;14.40;88.00;;;;;;5095619;28;20027;-50
2022/06/09 22:34:58;;;;;;;12.10;6.00;;;14.40;88.20;;;;;;5093706;28;20069;-48
2022/06/09 22:37:24;;;;;;;8.98;4.22;;;14.30;88.40;;;;;;5094553;28;20371;-49
2022/06/09 22:39:50;;;;;;;5.88;4.18;;;14.30;88.60;;;;;;5094820;28;20024;-49
2022/06/09 22:42:17;;;;;;;13.23;7.07;;;14.30;88.70;;;;;;5093760;28;20024;-49
2022/06/09 22:44:43;;;;;;;12.68;5.80;;;14.20;88.90;;;;;;5094925;28;20042;-48
2022/06/09 22:47:09;;;;;;;9.45;4.35;;;14.20;89.00;;;;;;5095078;28;20020;-51
2022/06/09 22:49:35;;;;;;;11.48;5.03;;;14.20;89.10;;;;;;5095495;28;20050;-48
2022/06/09 22:52:01;;;;;;;9.25;4.70;;;14.20;89.30;;;;;;5094127;28;20047;-52
2022/06/09 22:54:27;;;;;;;12.55;5.63;;;14.20;89.40;;;;;;5094984;28;20028;-52
2022/06/09 22:56:55;;;;;;;8.60;5.45;;;14.10;89.50;;;;;;5093293;28;20020;-51
2022/06/09 22:59:21;;;;;;;12.57;5.60;;;14.20;89.60;;;;;;5094647;28;20375;-49
2022/06/09 23:01:47;;;;;;;8.90;6.65;;;14.10;89.70;;;;;;5094837;28;20023;-48
2022/06/09 23:04:13;;;;;;;14.57;6.28;;;14.20;89.80;;;;;;5093088;28;20028;-48
2022/06/09 23:06:38;;;;;;;11.88;6.50;;;14.30;89.90;;;;;;5092930;28;20056;-51
2022/06/09 23:09:04;;;;;;;18.65;6.78;;;14.30;89.40;;;;;;5094325;28;20046;-50
2022/06/09 23:11:30;;;;;;;12.82;7.18;;;14.30;89.40;;;;;;5094305;28;20428;-51
2022/06/09 23:13:56;;;;;;;8.02;5.72;;;14.30;89.20;;;;;;5093838;28;20403;-49
2022/06/09 23:16:40;;;;;;;11.65;7.90;;;14.20;89.30;;;;;;5094430;28;20464;-53
2022/06/09 23:19:07;;;;;;;13.07;6.35;;;14.10;89.50;;;;;;5094432;28;20024;-50
2022/06/09 23:21:33;;;;;;;10.88;6.25;;;14.00;89.60;;;;;;5094462;28;20382;-50
2022/06/09 23:23:59;;;;;;;10.93;5.88;;;13.90;89.70;;;;;;5094204;28;20036;-48
2022/06/09 23:26:25;;;;;;;12.23;5.53;;;13.80;89.70;;;;;;5094100;28;20054;-52
2022/06/09 23:28:52;;;;;;;11.55;5.85;;;13.80;89.90;;;;;;5094157;28;20020;-49
2022/06/09 23:31:18;;;;;;;10.00;4.95;;;13.70;90.00;;;;;;5094245;28;20027;-49
2022/06/09 23:33:45;;;;;;;8.52;5.43;;;13.60;90.20;;;;;;5092327;28;20115;-52
2022/06/09 23:36:18;;;;;;;6.05;4.95;;;13.50;90.40;;;;;;5094092;28;20483;-52
2022/06/09 23:38:44;;;;;;;11.38;6.55;;;13.40;90.60;;;;;;5093719;28;20039;-48
2022/06/09 23:41:10;;;;;;;9.45;6.43;;;13.40;90.80;;;;;;5093633;28;20060;-51
2022/06/09 23:43:36;;;;;;;11.73;6.38;;;13.40;90.80;;;;;;5093835;28;20114;-50
2022/06/09 23:46:03;;;;;;;6.18;4.93;;;13.40;90.90;;;;;;5093646;28;20429;-50
2022/06/09 23:48:33;;;;;;;7.03;5.78;;;13.40;90.90;;;;;;5093299;28;20413;-48
2022/06/09 23:51:09;;;;;;;12.32;6.03;;;13.40;91.00;;;;;;5094082;28;20074;-50
2022/06/09 23:53:37;;;;;;;12.85;5.88;;;13.40;91.00;;;;;;5093761;28;20016;-49
2022/06/09 23:56:06;;;;;;;12.75;5.65;;;13.40;91.00;;;;;;5093662;28;20031;-49
2022/06/09 23:58:32;;;;;;;9.40;5.38;;;13.40;91.10;;;;;;5092540;28;20496;-52
